Time;durP1;ratioP1;P1;durP2;ratioP2;P2;SDS_P1;SDS_P2;PMS_P1;PMS_P2;Temp;Humidity;BMP_temperature;BMP_pressure;BME280_temperature;BME280_humidity;BME280_pressure;Samples;Min_cycle;Max_cycle;Signal;HPM_P1;HPM_P2
2021/01/05 00:00:24;;;;;;;;;;;;;;;;;;5134692;28;987;-73
2021/01/05 00:02:51;;;;;;;;;;;;;;;;;;5137302;27;915;-71
2021/01/05 00:05:16;;;;;;;;;;;;;;;;;;5138030;27;1360;-72
2021/01/05 00:07:42;;;;;;;;;;;;;;;;;;5139213;27;899;-71
2021/01/05 00:10:08;;;;;;;;;;;;;;;;;;5138679;27;1893;-72
2021/01/05 00:12:33;;;;;;;;;;;;;;;;;;5139217;27;1204;-73
2021/01/05 00:14:59;;;;;;;;;;;;;;;;;;5137540;27;1305;-73
2021/01/05 00:17:24;;;;;;;;;;;;;;;;;;5139147;27;998;-72
2021/01/05 00:19:49;;;;;;;;;;;;;;;;;;5138856;27;843;-73
2021/01/05 00:22:15;;;;;;;;;;;;;;;;;;5137765;27;1238;-73
2021/01/05 00:24:41;;;;;;;;;;;;;;;;;;5138831;27;1395;-73
2021/01/05 00:27:06;;;;;;;;;;;;;;;;;;5137541;27;986;-73
2021/01/05 00:29:32;;;;;;;;;;;;;;;;;;5137495;27;829;-72
2021/01/05 00:32:13;;;;;;;;;;;;;;;;;;5138563;27;1893;-74
2021/01/05 00:34:38;;;;;;;;;;;;;;;;;;5138704;27;1388;-73
2021/01/05 00:37:03;;;;;;;;;;;;;;;;;;5139145;27;975;-72
2021/01/05 00:39:28;;;;;;;;;;;;;;;;;;5139278;27;804;-72
2021/01/05 00:41:54;;;;;;;;;;;;;;;;;;5138738;27;1034;-71
2021/01/05 00:44:19;;;;;;;;;;;;;;;;;;5139166;27;1404;-72
2021/01/05 00:46:45;;;;;;;;;;;;;;;;;;5137677;27;1205;-72
2021/01/05 00:49:10;;;;;;;;;;;;;;;;;;5137655;27;1418;-72
2021/01/05 00:51:35;;;;;;;;;;;;;;;;;;5137496;27;1954;-71
2021/01/05 00:54:00;;;;;;;;;;;;;;;;;;5137683;27;1258;-71
2021/01/05 00:56:26;;;;;;;;;;;;;;;;;;5137534;27;1380;-72
2021/01/05 00:58:51;;;;;;;;;;;;;;;;;;5137477;27;1471;-71
2021/01/05 01:01:19;;;;;;;;;;;;;;;;;;5138581;27;828;-73
2021/01/05 01:03:44;;;;;;;;;;;;;;;;;;5138927;27;884;-71
2021/01/05 01:06:09;;;;;;;;;;;;;;;;;;5138420;27;1328;-71
2021/01/05 01:08:35;;;;;;;;;;;;;;;;;;5137142;27;1122;-71
2021/01/05 01:11:00;;;;;;;;;;;;;;;;;;5137046;27;1969;-71
2021/01/05 01:13:25;;;;;;;;;;;;;;;;;;5136760;27;1198;-73
2021/01/05 01:15:50;;;;;;;;;;;;;;;;;;5137518;27;1344;-72
2021/01/05 01:18:16;;;;;;;;;;;;;;;;;;5138426;27;923;-72
2021/01/05 01:20:41;;;;;;;;;;;;;;;;;;5138176;27;836;-71
2021/01/05 01:23:06;;;;;;;;;;;;;;;;;;5137181;27;853;-73
2021/01/05 01:25:31;;;;;;;;;;;;;;;;;;5137948;27;1344;-72
2021/01/05 01:27:57;;;;;;;;;;;;;;;;;;5136915;27;1323;-72
2021/01/05 01:30:22;;;;;;;;;;;;;;;;;;5136902;27;1943;-73
2021/01/05 01:32:47;;;;;;;;;;;;;;;;;;5138226;27;990;-71
2021/01/05 01:35:13;;;;;;;;;;;;;;;;;;5137858;27;1431;-73
2021/01/05 01:37:38;;;;;;;;;;;;;;;;;;5137935;27;927;-73
2021/01/05 01:40:04;;;;;;;;;;;;;;;;;;5137964;27;868;-72
2021/01/05 01:42:30;;;;;;;;;;;;;;;;;;5137765;27;1129;-73
2021/01/05 01:44:55;;;;;;;;;;;;;;;;;;5137755;27;1328;-72
2021/01/05 01:47:23;;;;;;;;;;;;;;;;;;5137831;27;848;-71
2021/01/05 01:49:50;;;;;;;;;;;;;;;;;;5137679;27;947;-70
2021/01/05 01:52:18;;;;;;;;;;;;;;;;;;5137737;27;1893;-71
2021/01/05 01:54:56;;;;;;;;;;;;;;;;;;5136599;27;1500;-72
2021/01/05 01:57:44;;;;;;;;;;;;;;;;;;5137680;27;898;-73
2021/01/05 02:00:22;;;;;;;;;;;;;;;;;;5134242;27;1245;-70
2021/01/05 02:03:03;;;;;;;;;;;;;;;;;;5136303;27;1181;-71
2021/01/05 02:05:51;;;;;;;;;;;;;;;;;;5137318;27;1340;-72
2021/01/05 02:08:22;;;;;;;;;;;;;;;;;;5134221;27;1440;-71
2021/01/05 02:10:50;;;;;;;;;;;;;;;;;;5137205;27;1893;-71
2021/01/05 02:13:24;;;;;;;;;;;;;;;;;;5136058;27;1260;-72
2021/01/05 02:16:05;;;;;;;;;;;;;;;;;;5135921;27;1403;-73
2021/01/05 02:18:49;;;;;;;;;;;;;;;;;;5135743;27;1604;-73
2021/01/05 02:21:33;;;;;;;;;;;;;;;;;;5136058;27;2271;-73
2021/01/05 02:24:16;;;;;;;;;;;;;;;;;;5136950;27;979;-72
2021/01/05 02:26:59;;;;;;;;;;;;;;;;;;5136938;27;848;-73
2021/01/05 02:29:27;;;;;;;;;;;;;;;;;;5136855;27;800;-73
2021/01/05 02:32:02;;;;;;;;;;;;;;;;;;5137127;27;1964;-71
2021/01/05 02:34:35;;;;;;;;;;;;;;;;;;5136848;27;1328;-72
2021/01/05 02:37:00;;;;;;;;;;;;;;;;;;5136763;27;923;-73
2021/01/05 02:39:28;;;;;;;;;;;;;;;;;;5136840;27;1031;-71
2021/01/05 02:42:23;;;;;;;;;;;;;;;;;;5135605;27;1296;-73
2021/01/05 02:44:58;;;;;;;;;;;;;;;;;;5126306;27;1376;-72
2021/01/05 02:47:50;;;;;;;;;;;;;;;;;;5136780;27;855;-72
2021/01/05 02:50:21;;;;;;;;;;;;;;;;;;5135007;27;1963;-72
2021/01/05 02:52:55;;;;;;;;;;;;;;;;;;5136415;27;817;-72
2021/01/05 02:55:39;;;;;;;;;;;;;;;;;;5136270;27;1293;-71
2021/01/05 02:58:23;;;;;;;;;;;;;;;;;;5136573;27;852;-73
2021/01/05 03:01:07;;;;;;;;;;;;;;;;;;5135233;27;1220;-72
2021/01/05 03:03:40;;;;;;;;;;;;;;;;;;5136223;27;859;-71
2021/01/05 03:06:15;;;;;;;;;;;;;;;;;;5134796;27;1471;-71
2021/01/05 03:08:45;;;;;;;;;;;;;;;;;;5135154;27;1197;-72
2021/01/05 03:11:15;;;;;;;;;;;;;;;;;;5134975;27;1901;-72
2021/01/05 03:13:47;;;;;;;;;;;;;;;;;;5136281;27;1150;-71
2021/01/05 03:16:22;;;;;;;;;;;;;;;;;;5135881;27;1372;-71
2021/01/05 03:18:52;;;;;;;;;;;;;;;;;;5134833;27;887;-71
2021/01/05 03:21:22;;;;;;;;;;;;;;;;;;5135927;27;812;-72
2021/01/05 03:23:51;;;;;;;;;;;;;;;;;;5135140;27;1623;-72
2021/01/05 03:26:20;;;;;;;;;;;;;;;;;;5135898;27;1312;-72
2021/01/05 03:28:45;;;;;;;;;;;;;;;;;;5135717;27;1017;-71
2021/01/05 03:31:20;;;;;;;;;;;;;;;;;;5134503;27;1918;-71
2021/01/05 03:33:48;;;;;;;;;;;;;;;;;;5135924;27;875;-72
2021/01/05 03:36:13;;;;;;;;;;;;;;;;;;5134283;27;1364;-72
2021/01/05 03:38:39;;;;;;;;;;;;;;;;;;5135791;27;983;-73
2021/01/05 03:41:04;;;;;;;;;;;;;;;;;;5134650;27;998;-71
2021/01/05 03:43:29;;;;;;;;;;;;;;;;;;5134616;27;833;-72
2021/01/05 03:45:54;;;;;;;;;;;;;;;;;;5134407;27;1360;-71
2021/01/05 03:48:20;;;;;;;;;;;;;;;;;;5135797;27;962;-72
2021/01/05 03:50:45;;;;;;;;;;;;;;;;;;5135539;27;1964;-73
2021/01/05 03:53:10;;;;;;;;;;;;;;;;;;5135435;27;908;-71
2021/01/05 03:55:35;;;;;;;;;;;;;;;;;;5134343;27;1321;-71
2021/01/05 03:58:01;;;;;;;;;;;;;;;;;;5134301;27;1386;-71
2021/01/05 04:00:26;;;;;;;;;;;;;;;;;;5135441;28;1034;-71
2021/01/05 04:02:56;;;;;;;;;;;;;;;;;;5135595;28;1195;-71
2021/01/05 04:05:23;;;;;;;;;;;;;;;;;;5133990;28;1455;-70
2021/01/05 04:07:48;;;;;;;;;;;;;;;;;;5135351;27;999;-72
2021/01/05 04:10:13;;;;;;;;;;;;;;;;;;5133996;28;1907;-72
2021/01/05 04:12:39;;;;;;;;;;;;;;;;;;5134618;28;1593;-72
2021/01/05 04:15:06;;;;;;;;;;;;;;;;;;5135182;27;1329;-71
2021/01/05 04:17:31;;;;;;;;;;;;;;;;;;5135337;28;1376;-72
2021/01/05 04:19:56;;;;;;;;;;;;;;;;;;5135278;28;876;-73
2021/01/05 04:22:22;;;;;;;;;;;;;;;;;;5134328;28;1175;-72
2021/01/05 04:24:47;;;;;;;;;;;;;;;;;;5135248;27;1269;-72
2021/01/05 04:27:12;;;;;;;;;;;;;;;;;;5133945;27;953;-71
2021/01/05 04:29:37;;;;;;;;;;;;;;;;;;5134903;27;952;-72
2021/01/05 04:32:03;;;;;;;;;;;;;;;;;;5135150;28;1898;-71
2021/01/05 04:34:28;;;;;;;;;;;;;;;;;;5135172;28;1333;-71
2021/01/05 04:36:53;;;;;;;;;;;;;;;;;;5135175;28;954;-71
2021/01/05 04:39:18;;;;;;;;;;;;;;;;;;5134035;27;1223;-73
2021/01/05 04:42:13;;;;;;;;;;;;;;;;;;5135092;27;848;-71
2021/01/05 04:44:44;;;;;;;;;;;;;;;;;;5129916;28;1380;-72
2021/01/05 04:47:30;;;;;;;;;;;;;;;;;;5135078;27;867;-73
2021/01/05 04:50:16;;;;;;;;;;;;;;;;;;5134570;27;1138;-72
2021/01/05 04:52:59;;;;;;;;;;;;;;;;;;5136841;27;1205;-70
2021/01/05 04:55:47;;;;;;;;;;;;;;;;;;5138855;27;1392;-71
2021/01/05 04:58:20;;;;;;;;;;;;;;;;;;5137423;27;1427;-71
2021/01/05 05:00:46;;;;;;;;;;;;;;;;;;5138533;27;1119;-71
2021/01/05 05:03:20;;;;;;;;;;;;;;;;;;5138765;27;853;-71
2021/01/05 05:05:52;;;;;;;;;;;;;;;;;;5138722;27;1396;-71
2021/01/05 05:08:17;;;;;;;;;;;;;;;;;;5138652;27;843;-71
2021/01/05 05:10:58;;;;;;;;;;;;;;;;;;5137132;27;1968;-71
2021/01/05 05:13:42;;;;;;;;;;;;;;;;;;5138507;27;839;-72
2021/01/05 05:16:39;;;;;;;;;;;;;;;;;;5138393;27;1345;-71
2021/01/05 05:19:11;;;;;;;;;;;;;;;;;;5137237;27;1243;-71
2021/01/05 05:21:44;;;;;;;;;;;;;;;;;;5136927;27;1388;-71
2021/01/05 05:24:22;;;;;;;;;;;;;;;;;;5136991;27;1635;-70
2021/01/05 05:26:58;;;;;;;;;;;;;;;;;;5136898;27;1418;-71
2021/01/05 05:29:29;;;;;;;;;;;;;;;;;;5138176;27;926;-72
2021/01/05 05:31:56;;;;;;;;;;;;;;;;;;5136739;27;1906;-72
2021/01/05 05:34:26;;;;;;;;;;;;;;;;;;5138077;27;1288;-72
2021/01/05 05:37:10;;;;;;;;;;;;;;;;;;5136799;27;1217;-71
2021/01/05 05:39:36;;;;;;;;;;;;;;;;;;5136498;27;1210;-70
2021/01/05 05:42:19;;;;;;;;;;;;;;;;;;5137993;27;1026;-72
2021/01/05 05:44:47;;;;;;;;;;;;;;;;;;5136558;27;1392;-71
2021/01/05 05:47:12;;;;;;;;;;;;;;;;;;5137998;27;801;-72
2021/01/05 05:49:55;;;;;;;;;;;;;;;;;;5136523;27;1138;-72
2021/01/05 05:52:40;;;;;;;;;;;;;;;;;;5136682;27;1897;-72
2021/01/05 05:55:16;;;;;;;;;;;;;;;;;;5136236;27;1396;-72
2021/01/05 05:57:43;;;;;;;;;;;;;;;;;;5137480;27;1283;-73
2021/01/05 06:00:09;;;;;;;;;;;;;;;;;;5136090;27;888;-71
2021/01/05 06:02:34;;;;;;;;;;;;;;;;;;5137608;27;804;-71
2021/01/05 06:05:02;;;;;;;;;;;;;;;;;;5136075;27;1305;-72
2021/01/05 06:07:27;;;;;;;;;;;;;;;;;;5137467;27;959;-71
2021/01/05 06:09:52;;;;;;;;;;;;;;;;;;5136080;27;1209;-71
2021/01/05 06:12:17;;;;;;;;;;;;;;;;;;5137419;27;1897;-71
2021/01/05 06:14:43;;;;;;;;;;;;;;;;;;5137456;27;1523;-72
2021/01/05 06:17:08;;;;;;;;;;;;;;;;;;5135981;27;1593;-71
2021/01/05 06:19:33;;;;;;;;;;;;;;;;;;5135888;27;1202;-71
2021/01/05 06:21:58;;;;;;;;;;;;;;;;;;5137067;27;884;-72
2021/01/05 06:24:24;;;;;;;;;;;;;;;;;;5135882;27;1348;-70
2021/01/05 06:26:49;;;;;;;;;;;;;;;;;;5135533;27;1336;-73
2021/01/05 06:29:14;;;;;;;;;;;;;;;;;;5137134;27;871;-70
2021/01/05 06:31:39;;;;;;;;;;;;;;;;;;5136760;27;1949;-72
2021/01/05 06:34:05;;;;;;;;;;;;;;;;;;5135703;27;821;-72
2021/01/05 06:36:30;;;;;;;;;;;;;;;;;;5135830;27;1384;-72
2021/01/05 06:38:55;;;;;;;;;;;;;;;;;;5136674;27;1116;-71
2021/01/05 06:41:23;;;;;;;;;;;;;;;;;;5136578;27;860;-72
2021/01/05 06:43:48;;;;;;;;;;;;;;;;;;5135840;27;896;-72
2021/01/05 06:46:14;;;;;;;;;;;;;;;;;;5136764;27;1297;-72
2021/01/05 06:48:39;;;;;;;;;;;;;;;;;;5136510;27;975;-71
2021/01/05 06:51:05;;;;;;;;;;;;;;;;;;5135142;27;1962;-72
2021/01/05 06:53:30;;;;;;;;;;;;;;;;;;5136711;27;876;-72
2021/01/05 06:55:56;;;;;;;;;;;;;;;;;;5136390;27;1420;-72
2021/01/05 06:58:21;;;;;;;;;;;;;;;;;;5136293;27;1038;-72
2021/01/05 07:00:46;;;;;;;;;;;;;;;;;;5134973;27;1319;-71
2021/01/05 07:03:11;;;;;;;;;;;;;;;;;;5136413;27;986;-72
2021/01/05 07:05:37;;;;;;;;;;;;;;;;;;5134855;27;1949;-71
2021/01/05 07:08:02;;;;;;;;;;;;;;;;;;5136287;27;954;-71
2021/01/05 07:10:27;;;;;;;;;;;;;;;;;;5135661;27;1901;-72
2021/01/05 07:12:52;;;;;;;;;;;;;;;;;;5136267;27;828;-72
2021/01/05 07:15:18;;;;;;;;;;;;;;;;;;5136156;27;1340;-72
2021/01/05 07:17:44;;;;;;;;;;;;;;;;;;5135956;27;907;-73
2021/01/05 07:20:10;;;;;;;;;;;;;;;;;;5136123;27;919;-72
2021/01/05 07:22:36;;;;;;;;;;;;;;;;;;5134872;27;1379;-72
2021/01/05 07:25:01;;;;;;;;;;;;;;;;;;5136120;27;1312;-72
2021/01/05 07:27:27;;;;;;;;;;;;;;;;;;5136143;27;793;-71
2021/01/05 07:29:53;;;;;;;;;;;;;;;;;;5134437;27;1523;-73
2021/01/05 07:32:18;;;;;;;;;;;;;;;;;;5134457;27;1977;-71
2021/01/05 07:34:43;;;;;;;;;;;;;;;;;;5135979;27;1349;-72
2021/01/05 07:37:11;;;;;;;;;;;;;;;;;;5134514;27;1060;-71
2021/01/05 07:39:36;;;;;;;;;;;;;;;;;;5135594;27;856;-73
2021/01/05 07:42:11;;;;;;;;;;;;;;;;;;5135547;27;840;-72
2021/01/05 07:44:38;;;;;;;;;;;;;;;;;;5134705;27;1320;-72
2021/01/05 07:47:03;;;;;;;;;;;;;;;;;;5135768;27;938;-71
2021/01/05 07:49:28;;;;;;;;;;;;;;;;;;5134395;27;908;-73
2021/01/05 07:51:53;;;;;;;;;;;;;;;;;;5135373;27;1960;-72
2021/01/05 07:54:19;;;;;;;;;;;;;;;;;;5135354;27;1439;-72
2021/01/05 07:56:44;;;;;;;;;;;;;;;;;;5135763;27;859;-71
2021/01/05 07:59:10;;;;;;;;;;;;;;;;;;5134337;27;1384;-72
2021/01/05 08:01:35;;;;;;;;;;;;;;;;;;5134129;28;1516;-71
2021/01/05 08:04:00;;;;;;;;;;;;;;;;;;5134584;28;1517;-71
2021/01/05 08:06:25;;;;;;;;;;;;;;;;;;5134114;28;1485;-71
2021/01/05 08:08:50;;;;;;;;;;;;;;;;;;5134548;28;947;-71
2021/01/05 08:11:16;;;;;;;;;;;;;;;;;;5133965;28;1897;-73
2021/01/05 08:13:41;;;;;;;;;;;;;;;;;;5134335;28;793;-73
2021/01/05 08:16:06;;;;;;;;;;;;;;;;;;5135167;27;1380;-71
2021/01/05 08:18:31;;;;;;;;;;;;;;;;;;5134205;28;1224;-71
2021/01/05 08:20:57;;;;;;;;;;;;;;;;;;5135205;27;872;-72
2021/01/05 08:23:22;;;;;;;;;;;;;;;;;;5135791;27;840;-71
2021/01/05 08:25:47;;;;;;;;;;;;;;;;;;5139384;27;1412;-71
2021/01/05 08:28:12;;;;;;;;;;;;;;;;;;5138072;27;1232;-72
2021/01/05 08:30:39;;;;;;;;;;;;;;;;;;5137685;27;1897;-72
2021/01/05 08:33:06;;;;;;;;;;;;;;;;;;5139434;27;863;-71
2021/01/05 08:35:32;;;;;;;;;;;;;;;;;;5137948;27;1443;-73
2021/01/05 08:37:57;;;;;;;;;;;;;;;;;;5139292;27;934;-72
2021/01/05 08:40:26;;;;;;;;;;;;;;;;;;5138935;27;879;-71
2021/01/05 08:42:51;;;;;;;;;;;;;;;;;;5137690;27;927;-71
2021/01/05 08:45:16;;;;;;;;;;;;;;;;;;5138942;27;1297;-71
2021/01/05 08:47:41;;;;;;;;;;;;;;;;;;5139228;27;975;-71
2021/01/05 08:50:08;;;;;;;;;;;;;;;;;;5138900;27;828;-71
2021/01/05 08:52:34;;;;;;;;;;;;;;;;;;5138893;27;1906;-72
2021/01/05 08:54:59;;;;;;;;;;;;;;;;;;5138765;27;1313;-71
2021/01/05 08:57:24;;;;;;;;;;;;;;;;;;5138926;27;924;-71
2021/01/05 08:59:49;;;;;;;;;;;;;;;;;;5138464;27;1026;-71
2021/01/05 09:02:15;;;;;;;;;;;;;;;;;;5138804;27;793;-71
2021/01/05 09:04:41;;;;;;;;;;;;;;;;;;5138610;27;1332;-72
2021/01/05 09:07:06;;;;;;;;;;;;;;;;;;5137131;27;1236;-71
2021/01/05 09:09:31;;;;;;;;;;;;;;;;;;5138768;27;890;-71
2021/01/05 09:11:58;;;;;;;;;;;;;;;;;;5137233;27;1905;-71
2021/01/05 09:14:23;;;;;;;;;;;;;;;;;;5137159;27;1316;-71
2021/01/05 09:16:55;;;;;;;;;;;;;;;;;;5138357;27;808;-73
2021/01/05 09:19:20;;;;;;;;;;;;;;;;;;5138461;27;797;-71
2021/01/05 09:21:46;;;;;;;;;;;;;;;;;;5136882;27;1958;-72
2021/01/05 09:24:11;;;;;;;;;;;;;;;;;;5138445;27;1205;-71
2021/01/05 09:26:37;;;;;;;;;;;;;;;;;;5138277;27;1376;-73
2021/01/05 09:29:03;;;;;;;;;;;;;;;;;;5138182;27;1186;-71
2021/01/05 09:31:29;;;;;;;;;;;;;;;;;;5137793;27;1953;-71
2021/01/05 09:33:54;;;;;;;;;;;;;;;;;;5136614;27;1370;-72
2021/01/05 09:36:27;;;;;;;;;;;;;;;;;;5138063;27;1400;-73
2021/01/05 09:38:53;;;;;;;;;;;;;;;;;;5137131;27;971;-71
2021/01/05 09:41:20;;;;;;;;;;;;;;;;;;5137851;27;805;-71
2021/01/05 09:43:45;;;;;;;;;;;;;;;;;;5136677;27;1173;-71
2021/01/05 09:46:11;;;;;;;;;;;;;;;;;;5137835;27;1435;-71
2021/01/05 09:48:36;;;;;;;;;;;;;;;;;;5138025;27;888;-73
2021/01/05 09:51:01;;;;;;;;;;;;;;;;;;5137477;27;1905;-73
2021/01/05 09:53:26;;;;;;;;;;;;;;;;;;5137844;27;875;-72
2021/01/05 09:55:52;;;;;;;;;;;;;;;;;;5137723;27;1403;-72
2021/01/05 09:58:17;;;;;;;;;;;;;;;;;;5137607;27;919;-72
2021/01/05 10:00:42;;;;;;;;;;;;;;;;;;5137674;27;875;-72
2021/01/05 10:03:07;;;;;;;;;;;;;;;;;;5137719;27;857;-72
2021/01/05 10:05:33;;;;;;;;;;;;;;;;;;5137439;27;1355;-71
2021/01/05 10:07:59;;;;;;;;;;;;;;;;;;5137371;27;916;-73
2021/01/05 10:10:25;;;;;;;;;;;;;;;;;;5137245;27;1913;-73
2021/01/05 10:12:51;;;;;;;;;;;;;;;;;;5137228;27;1057;-72
2021/01/05 10:15:17;;;;;;;;;;;;;;;;;;5137374;27;1332;-72
2021/01/05 10:17:42;;;;;;;;;;;;;;;;;;5136050;27;1261;-72
2021/01/05 10:20:08;;;;;;;;;;;;;;;;;;5137045;27;820;-71
2021/01/05 10:22:33;;;;;;;;;;;;;;;;;;5135991;27;1200;-72
2021/01/05 10:24:59;;;;;;;;;;;;;;;;;;5135624;27;1348;-71
2021/01/05 10:27:24;;;;;;;;;;;;;;;;;;5135783;27;1165;-73
2021/01/05 10:29:50;;;;;;;;;;;;;;;;;;5135628;27;1201;-72
2021/01/05 10:32:15;;;;;;;;;;;;;;;;;;5137085;27;1918;-72
2021/01/05 10:34:40;;;;;;;;;;;;;;;;;;5135906;27;1387;-71
2021/01/05 10:37:05;;;;;;;;;;;;;;;;;;5135390;27;1180;-70
2021/01/05 10:39:31;;;;;;;;;;;;;;;;;;5137034;27;813;-71
2021/01/05 10:41:56;;;;;;;;;;;;;;;;;;5136601;27;801;-72
2021/01/05 10:44:22;;;;;;;;;;;;;;;;;;5135509;27;1440;-73
2021/01/05 10:46:48;;;;;;;;;;;;;;;;;;5134861;27;1319;-72
2021/01/05 10:49:13;;;;;;;;;;;;;;;;;;5135493;27;1195;-71
2021/01/05 10:51:46;;;;;;;;;;;;;;;;;;5136179;27;1901;-73
2021/01/05 10:54:12;;;;;;;;;;;;;;;;;;5136710;27;931;-71
2021/01/05 10:56:38;;;;;;;;;;;;;;;;;;5135072;27;1387;-71
2021/01/05 10:59:03;;;;;;;;;;;;;;;;;;5136560;27;801;-71
2021/01/05 11:01:28;;;;;;;;;;;;;;;;;;5136265;27;1054;-71
2021/01/05 11:03:54;;;;;;;;;;;;;;;;;;5135197;27;860;-70
2021/01/05 11:06:20;;;;;;;;;;;;;;;;;;5136202;27;1317;-71
2021/01/05 11:08:45;;;;;;;;;;;;;;;;;;5135013;27;1284;-71
2021/01/05 11:11:14;;;;;;;;;;;;;;;;;;5134903;27;1893;-71
2021/01/05 11:13:39;;;;;;;;;;;;;;;;;;5135007;27;1394;-71
2021/01/05 11:16:04;;;;;;;;;;;;;;;;;;5135771;27;1416;-71
2021/01/05 11:18:30;;;;;;;;;;;;;;;;;;5135333;27;939;-71
2021/01/05 11:20:55;;;;;;;;;;;;;;;;;;5134665;27;1276;-70
2021/01/05 11:23:20;;;;;;;;;;;;;;;;;;5136075;27;820;-71
2021/01/05 11:25:45;;;;;;;;;;;;;;;;;;5134653;27;1320;-71
2021/01/05 11:28:11;;;;;;;;;;;;;;;;;;5135019;27;1180;-70
2021/01/05 11:30:36;;;;;;;;;;;;;;;;;;5135541;27;1905;-72
2021/01/05 11:33:02;;;;;;;;;;;;;;;;;;5136075;27;902;-71
2021/01/05 11:35:27;;;;;;;;;;;;;;;;;;5134543;27;3160;-72
2021/01/05 11:37:52;;;;;;;;;;;;;;;;;;5134509;27;1321;-72
2021/01/05 11:40:19;;;;;;;;;;;;;;;;;;5135480;27;872;-70
2021/01/05 11:42:44;;;;;;;;;;;;;;;;;;5136292;27;848;-70
2021/01/05 11:45:11;;;;;;;;;;;;;;;;;;5134783;27;1361;-71
2021/01/05 11:47:36;;;;;;;;;;;;;;;;;;5134281;27;1612;-70
2021/01/05 11:50:03;;;;;;;;;;;;;;;;;;5135516;27;792;-73
2021/01/05 11:52:30;;;;;;;;;;;;;;;;;;5133989;27;1893;-71
2021/01/05 11:54:56;;;;;;;;;;;;;;;;;;5135444;27;1403;-72
2021/01/05 11:57:21;;;;;;;;;;;;;;;;;;5134227;27;825;-71
2021/01/05 11:59:46;;;;;;;;;;;;;;;;;;5135723;27;945;-71
2021/01/05 12:02:11;;;;;;;;;;;;;;;;;;5134114;27;1497;-72
2021/01/05 12:04:37;;;;;;;;;;;;;;;;;;5135585;27;1367;-72
2021/01/05 12:07:02;;;;;;;;;;;;;;;;;;5135591;28;944;-70
2021/01/05 12:09:28;;;;;;;;;;;;;;;;;;5135429;28;881;-70
2021/01/05 12:11:56;;;;;;;;;;;;;;;;;;5133965;28;1901;-71
2021/01/05 12:14:22;;;;;;;;;;;;;;;;;;5135257;27;1388;-70
2021/01/05 12:16:48;;;;;;;;;;;;;;;;;;5135455;28;821;-70
2021/01/05 12:19:16;;;;;;;;;;;;;;;;;;5134290;28;1375;-70
2021/01/05 12:21:42;;;;;;;;;;;;;;;;;;5135191;27;1266;-71
2021/01/05 12:24:09;;;;;;;;;;;;;;;;;;5135037;27;793;-72
2021/01/05 12:26:35;;;;;;;;;;;;;;;;;;5135262;28;1309;-70
2021/01/05 12:29:02;;;;;;;;;;;;;;;;;;5135132;28;808;-70
2021/01/05 12:31:27;;;;;;;;;;;;;;;;;;5133592;28;1899;-71
2021/01/05 12:33:54;;;;;;;;;;;;;;;;;;5135345;27;892;-70
2021/01/05 12:36:23;;;;;;;;;;;;;;;;;;5135127;28;1436;-71
2021/01/05 12:38:48;;;;;;;;;;;;;;;;;;5135180;28;835;-72
2021/01/05 12:41:14;;;;;;;;;;;;;;;;;;5135257;28;860;-71
2021/01/05 12:43:39;;;;;;;;;;;;;;;;;;5133950;27;1312;-71
2021/01/05 12:46:04;;;;;;;;;;;;;;;;;;5134808;27;1412;-72
2021/01/05 12:48:29;;;;;;;;;;;;;;;;;;5135125;28;852;-70
2021/01/05 12:50:54;;;;;;;;;;;;;;;;;;5134933;28;1889;-73
2021/01/05 12:53:20;;;;;;;;;;;;;;;;;;5134980;28;1025;-68
2021/01/05 12:55:45;;;;;;;;;;;;;;;;;;5133713;28;1357;-68
2021/01/05 12:58:10;;;;;;;;;;;;;;;;;;5134872;27;827;-68
2021/01/05 13:00:36;;;;;;;;;;;;;;;;;;5133545;28;1348;-68
2021/01/05 13:03:01;;;;;;;;;;;;;;;;;;5135052;27;869;-68
2021/01/05 13:05:27;;;;;;;;;;;;;;;;;;5133549;28;1568;-68
2021/01/05 13:07:52;;;;;;;;;;;;;;;;;;5116289;28;1052;-67
2021/01/05 13:10:17;;;;;;;;;;;;;;;;;;5137490;27;935;-67
2021/01/05 13:12:43;;;;;;;;;;;;;;;;;;5138362;27;1906;-68
2021/01/05 13:15:09;;;;;;;;;;;;;;;;;;5138438;27;1336;-69
2021/01/05 13:17:38;;;;;;;;;;;;;;;;;;5138311;27;832;-69
2021/01/05 13:20:03;;;;;;;;;;;;;;;;;;5136808;27;1172;-68
2021/01/05 13:22:28;;;;;;;;;;;;;;;;;;5138306;27;966;-68
2021/01/05 13:24:54;;;;;;;;;;;;;;;;;;5138223;27;1321;-68
2021/01/05 13:27:19;;;;;;;;;;;;;;;;;;5138247;27;879;-68
2021/01/05 13:29:44;;;;;;;;;;;;;;;;;;5136659;27;1296;-68
2021/01/05 13:32:11;;;;;;;;;;;;;;;;;;5137777;27;1962;-68
2021/01/05 13:34:40;;;;;;;;;;;;;;;;;;5136807;27;1357;-69
2021/01/05 13:37:06;;;;;;;;;;;;;;;;;;5138110;27;891;-68
2021/01/05 13:39:31;;;;;;;;;;;;;;;;;;5138188;27;836;-68
2021/01/05 13:41:58;;;;;;;;;;;;;;;;;;5137796;27;844;-68
2021/01/05 13:44:23;;;;;;;;;;;;;;;;;;5136403;27;1375;-69
2021/01/05 13:46:49;;;;;;;;;;;;;;;;;;5138018;27;900;-68
2021/01/05 13:49:18;;;;;;;;;;;;;;;;;;5137418;27;1134;-68
2021/01/05 13:51:43;;;;;;;;;;;;;;;;;;5136376;27;1905;-68
2021/01/05 13:54:13;;;;;;;;;;;;;;;;;;5136341;27;1429;-67
2021/01/05 13:56:38;;;;;;;;;;;;;;;;;;5137067;27;1400;-68
2021/01/05 13:59:04;;;;;;;;;;;;;;;;;;5137966;27;844;-68
2021/01/05 14:01:29;;;;;;;;;;;;;;;;;;5137470;27;1027;-68
2021/01/05 14:03:55;;;;;;;;;;;;;;;;;;5137722;27;809;-70
2021/01/05 14:06:29;;;;;;;;;;;;;;;;;;5137392;27;1328;-70
2021/01/05 14:08:55;;;;;;;;;;;;;;;;;;5135721;27;1564;-69
2021/01/05 14:11:21;;;;;;;;;;;;;;;;;;5136158;27;2045;-69
2021/01/05 14:13:47;;;;;;;;;;;;;;;;;;5133462;27;1481;-69
2021/01/05 14:16:13;;;;;;;;;;;;;;;;;;5136256;27;1522;-69
2021/01/05 14:18:39;;;;;;;;;;;;;;;;;;5136128;27;823;-69
2021/01/05 14:21:04;;;;;;;;;;;;;;;;;;5135991;27;1005;-70
2021/01/05 14:23:30;;;;;;;;;;;;;;;;;;5135809;27;1554;-69
2021/01/05 14:25:59;;;;;;;;;;;;;;;;;;5136967;27;1341;-69
2021/01/05 14:28:25;;;;;;;;;;;;;;;;;;5137207;27;938;-69
2021/01/05 14:30:50;;;;;;;;;;;;;;;;;;5136871;27;1889;-69
2021/01/05 14:33:16;;;;;;;;;;;;;;;;;;5136970;27;840;-69
2021/01/05 14:35:41;;;;;;;;;;;;;;;;;;5136966;27;1333;-70
2021/01/05 14:38:06;;;;;;;;;;;;;;;;;;5135549;27;970;-70
2021/01/05 14:40:31;;;;;;;;;;;;;;;;;;5135541;27;1126;-70
2021/01/05 14:42:56;;;;;;;;;;;;;;;;;;5135590;27;824;-69
2021/01/05 14:45:22;;;;;;;;;;;;;;;;;;5135765;27;1418;-70
2021/01/05 14:47:48;;;;;;;;;;;;;;;;;;5135451;27;868;-70
2021/01/05 14:50:14;;;;;;;;;;;;;;;;;;5136570;27;836;-70
2021/01/05 14:52:39;;;;;;;;;;;;;;;;;;5136377;27;1890;-69
2021/01/05 14:55:05;;;;;;;;;;;;;;;;;;5135337;27;1673;-70
2021/01/05 14:57:30;;;;;;;;;;;;;;;;;;5136464;27;1018;-70
2021/01/05 14:59:56;;;;;;;;;;;;;;;;;;5135024;27;813;-70
2021/01/05 15:02:21;;;;;;;;;;;;;;;;;;5136188;27;1534;-70
2021/01/05 15:04:48;;;;;;;;;;;;;;;;;;5134067;27;1543;-70
2021/01/05 15:07:13;;;;;;;;;;;;;;;;;;5133834;27;1594;-70
2021/01/05 15:09:38;;;;;;;;;;;;;;;;;;5133688;27;1655;-70
2021/01/05 15:12:04;;;;;;;;;;;;;;;;;;5134901;27;1893;-70
2021/01/05 15:14:30;;;;;;;;;;;;;;;;;;5133681;27;1422;-70
2021/01/05 15:16:56;;;;;;;;;;;;;;;;;;5135946;27;839;-70
2021/01/05 15:19:22;;;;;;;;;;;;;;;;;;5136381;27;860;-70
2021/01/05 15:21:47;;;;;;;;;;;;;;;;;;5135019;27;1372;-70
2021/01/05 15:24:13;;;;;;;;;;;;;;;;;;5136009;27;954;-70
2021/01/05 15:26:39;;;;;;;;;;;;;;;;;;5134459;27;1364;-70
2021/01/05 15:29:04;;;;;;;;;;;;;;;;;;5136033;27;947;-70
2021/01/05 15:31:36;;;;;;;;;;;;;;;;;;5135464;27;1902;-70
2021/01/05 15:34:01;;;;;;;;;;;;;;;;;;5134952;27;1479;-70
2021/01/05 15:36:26;;;;;;;;;;;;;;;;;;5134442;27;2426;-70
2021/01/05 15:38:52;;;;;;;;;;;;;;;;;;5135784;27;875;-70
2021/01/05 15:41:17;;;;;;;;;;;;;;;;;;5135637;27;856;-70
2021/01/05 15:43:42;;;;;;;;;;;;;;;;;;5135926;27;938;-70
2021/01/05 15:46:18;;;;;;;;;;;;;;;;;;5134230;27;1470;-70
2021/01/05 15:48:43;;;;;;;;;;;;;;;;;;5135716;27;1010;-70
2021/01/05 15:51:08;;;;;;;;;;;;;;;;;;5135376;27;1882;-70
2021/01/05 15:53:34;;;;;;;;;;;;;;;;;;5135405;27;967;-70
2021/01/05 15:55:59;;;;;;;;;;;;;;;;;;5135571;27;1305;-70
2021/01/05 15:58:24;;;;;;;;;;;;;;;;;;5135672;27;980;-70
2021/01/05 16:00:49;;;;;;;;;;;;;;;;;;5135395;27;854;-69
2021/01/05 16:03:15;;;;;;;;;;;;;;;;;;5135455;27;1027;-70
2021/01/05 16:05:40;;;;;;;;;;;;;;;;;;5134321;28;1440;-69
2021/01/05 16:08:06;;;;;;;;;;;;;;;;;;5135227;28;849;-69
2021/01/05 16:10:31;;;;;;;;;;;;;;;;;;5135184;28;1898;-70
2021/01/05 16:12:57;;;;;;;;;;;;;;;;;;5135257;28;911;-70
2021/01/05 16:15:22;;;;;;;;;;;;;;;;;;5135258;28;1388;-70
2021/01/05 16:17:48;;;;;;;;;;;;;;;;;;5135343;28;904;-70
2021/01/05 16:20:14;;;;;;;;;;;;;;;;;;5135260;28;1026;-70
2021/01/05 16:22:39;;;;;;;;;;;;;;;;;;5135074;28;1942;-70
2021/01/05 16:25:05;;;;;;;;;;;;;;;;;;5133895;28;1401;-70
2021/01/05 16:27:30;;;;;;;;;;;;;;;;;;5135149;27;1359;-70
2021/01/05 16:29:56;;;;;;;;;;;;;;;;;;5135001;27;887;-70
2021/01/05 16:32:21;;;;;;;;;;;;;;;;;;5135341;28;1968;-70
2021/01/05 16:34:46;;;;;;;;;;;;;;;;;;5133914;28;1309;-70
2021/01/05 16:37:11;;;;;;;;;;;;;;;;;;5134774;27;962;-70
2021/01/05 16:39:37;;;;;;;;;;;;;;;;;;5135007;28;846;-70
2021/01/05 16:42:03;;;;;;;;;;;;;;;;;;5135481;28;855;-70
2021/01/05 16:44:29;;;;;;;;;;;;;;;;;;5135536;27;2389;-70
2021/01/05 16:46:55;;;;;;;;;;;;;;;;;;5137685;27;903;-72
2021/01/05 16:49:21;;;;;;;;;;;;;;;;;;5139241;27;934;-70
2021/01/05 16:51:46;;;;;;;;;;;;;;;;;;5137699;27;1897;-70
2021/01/05 16:54:12;;;;;;;;;;;;;;;;;;5138988;27;966;-70
2021/01/05 16:56:37;;;;;;;;;;;;;;;;;;5138834;27;1379;-70
2021/01/05 16:59:02;;;;;;;;;;;;;;;;;;5137549;27;1339;-70
2021/01/05 17:01:28;;;;;;;;;;;;;;;;;;5138764;27;904;-70
2021/01/05 17:03:53;;;;;;;;;;;;;;;;;;5137521;27;1662;-70
2021/01/05 17:06:19;;;;;;;;;;;;;;;;;;5138346;27;1351;-70
2021/01/05 17:08:44;;;;;;;;;;;;;;;;;;5138709;27;872;-70
2021/01/05 17:11:10;;;;;;;;;;;;;;;;;;5138453;27;1957;-70